sensor_id;sensor_type;location;lat;lon;timestamp;P1;durP1;ratioP1;P2;durP2;ratioP2
16416;SDS011;8317;52.186;5.688;2022-11-25T00:01:46;16.17;;;3.80;;
16416;SDS011;8317;52.186;5.688;2022-11-25T00:04:13;14.98;;;3.70;;
16416;SDS011;8317;52.186;5.688;2022-11-25T00:06:41;19.58;;;3.83;;
16416;SDS011;8317;52.186;5.688;2022-11-25T00:09:10;22.15;;;4.18;;
16416;SDS011;8317;52.186;5.688;2022-11-25T00:11:37;14.48;;;3.67;;
16416;SDS011;8317;52.186;5.688;2022-11-25T00:14:06;18.67;;;3.85;;
16416;SDS011;8317;52.186;5.688;2022-11-25T00:16:35;12.35;;;4.68;;
16416;SDS011;8317;52.186;5.688;2022-11-25T00:19:02;19.85;;;3.85;;
16416;SDS011;8317;52.186;5.688;2022-11-25T00:21:30;17.25;;;4.35;;
16416;SDS011;8317;52.186;5.688;2022-11-25T00:23:58;20.25;;;4.82;;
16416;SDS011;8317;52.186;5.688;2022-11-25T00:26:28;23.17;;;3.42;;
16416;SDS011;8317;52.186;5.688;2022-11-25T00:28:58;17.48;;;3.75;;
16416;SDS011;8317;52.186;5.688;2022-11-25T00:31:26;18.30;;;3.70;;
16416;SDS011;8317;52.186;5.688;2022-11-25T00:33:54;21.60;;;4.25;;
16416;SDS011;8317;52.186;5.688;2022-11-25T00:36:22;17.95;;;4.00;;
16416;SDS011;8317;52.186;5.688;2022-11-25T00:38:51;17.55;;;4.88;;
16416;SDS011;8317;52.186;5.688;2022-11-25T00:41:18;19.58;;;3.78;;
16416;SDS011;8317;52.186;5.688;2022-11-25T00:44:04;19.08;;;4.53;;
16416;SDS011;8317;52.186;5.688;2022-11-25T00:46:49;14.93;;;4.10;;
16416;SDS011;8317;52.186;5.688;2022-11-25T00:49:16;13.60;;;3.80;;
16416;SDS011;8317;52.186;5.688;2022-11-25T00:51:43;15.95;;;4.22;;
16416;SDS011;8317;52.186;5.688;2022-11-25T00:54:09;19.60;;;4.45;;
16416;SDS011;8317;52.186;5.688;2022-11-25T00:56:36;27.70;;;5.07;;
16416;SDS011;8317;52.186;5.688;2022-11-25T00:59:05;23.73;;;4.47;;
16416;SDS011;8317;52.186;5.688;2022-11-25T01:01:32;15.70;;;3.80;;
16416;SDS011;8317;52.186;5.688;2022-11-25T01:03:59;20.35;;;5.28;;
16416;SDS011;8317;52.186;5.688;2022-11-25T01:06:25;20.38;;;4.53;;
16416;SDS011;8317;52.186;5.688;2022-11-25T01:08:52;18.00;;;4.53;;
16416;SDS011;8317;52.186;5.688;2022-11-25T01:11:20;22.75;;;4.75;;
16416;SDS011;8317;52.186;5.688;2022-11-25T01:13:48;18.20;;;4.28;;
16416;SDS011;8317;52.186;5.688;2022-11-25T01:16:17;15.35;;;4.25;;
16416;SDS011;8317;52.186;5.688;2022-11-25T01:18:45;24.90;;;4.72;;
16416;SDS011;8317;52.186;5.688;2022-11-25T01:21:15;17.35;;;4.50;;
16416;SDS011;8317;52.186;5.688;2022-11-25T01:23:43;17.80;;;4.57;;
16416;SDS011;8317;52.186;5.688;2022-11-25T01:26:11;14.93;;;4.22;;
16416;SDS011;8317;52.186;5.688;2022-11-25T01:28:39;16.42;;;4.40;;
16416;SDS011;8317;52.186;5.688;2022-11-25T01:31:07;19.65;;;4.22;;
16416;SDS011;8317;52.186;5.688;2022-11-25T01:33:36;22.23;;;4.43;;
16416;SDS011;8317;52.186;5.688;2022-11-25T01:36:04;22.55;;;5.13;;
16416;SDS011;8317;52.186;5.688;2022-11-25T01:38:33;18.08;;;4.82;;
16416;SDS011;8317;52.186;5.688;2022-11-25T01:41:01;22.23;;;4.97;;
16416;SDS011;8317;52.186;5.688;2022-11-25T01:43:29;26.60;;;4.78;;
16416;SDS011;8317;52.186;5.688;2022-11-25T01:46:05;16.63;;;3.83;;
16416;SDS011;8317;52.186;5.688;2022-11-25T01:48:38;20.88;;;4.75;;
16416;SDS011;8317;52.186;5.688;2022-11-25T01:51:12;19.92;;;4.90;;
16416;SDS011;8317;52.186;5.688;2022-11-25T01:53:45;29.75;;;5.50;;
16416;SDS011;8317;52.186;5.688;2022-11-25T01:56:12;18.50;;;4.30;;
16416;SDS011;8317;52.186;5.688;2022-11-25T01:58:39;15.18;;;4.32;;
16416;SDS011;8317;52.186;5.688;2022-11-25T02:01:07;18.38;;;4.65;;
16416;SDS011;8317;52.186;5.688;2022-11-25T02:03:36;23.23;;;5.38;;
16416;SDS011;8317;52.186;5.688;2022-11-25T02:06:07;21.58;;;3.88;;
16416;SDS011;8317;52.186;5.688;2022-11-25T02:08:41;20.30;;;4.95;;
16416;SDS011;8317;52.186;5.688;2022-11-25T02:11:11;16.30;;;4.55;;
16416;SDS011;8317;52.186;5.688;2022-11-25T02:13:40;17.60;;;4.35;;
16416;SDS011;8317;52.186;5.688;2022-11-25T02:16:08;14.45;;;4.63;;
16416;SDS011;8317;52.186;5.688;2022-11-25T02:18:35;21.52;;;4.40;;
16416;SDS011;8317;52.186;5.688;2022-11-25T02:21:03;15.32;;;4.50;;
16416;SDS011;8317;52.186;5.688;2022-11-25T02:23:32;20.88;;;4.63;;
16416;SDS011;8317;52.186;5.688;2022-11-25T02:26:05;26.02;;;4.90;;
16416;SDS011;8317;52.186;5.688;2022-11-25T02:28:33;16.67;;;4.45;;
16416;SDS011;8317;52.186;5.688;2022-11-25T02:31:00;21.33;;;4.45;;
16416;SDS011;8317;52.186;5.688;2022-11-25T02:33:27;20.63;;;4.50;;
16416;SDS011;8317;52.186;5.688;2022-11-25T02:35:54;15.30;;;4.53;;
16416;SDS011;8317;52.186;5.688;2022-11-25T02:38:23;22.33;;;4.40;;
16416;SDS011;8317;52.186;5.688;2022-11-25T02:40:56;16.65;;;3.63;;
16416;SDS011;8317;52.186;5.688;2022-11-25T02:43:26;15.60;;;4.07;;
16416;SDS011;8317;52.186;5.688;2022-11-25T02:45:55;19.65;;;4.55;;
16416;SDS011;8317;52.186;5.688;2022-11-25T02:48:26;18.90;;;4.68;;
16416;SDS011;8317;52.186;5.688;2022-11-25T02:50:54;18.83;;;4.95;;
16416;SDS011;8317;52.186;5.688;2022-11-25T02:53:21;24.58;;;4.57;;
16416;SDS011;8317;52.186;5.688;2022-11-25T02:55:48;14.43;;;5.25;;
16416;SDS011;8317;52.186;5.688;2022-11-25T02:58:15;17.17;;;4.43;;
16416;SDS011;8317;52.186;5.688;2022-11-25T03:00:44;18.95;;;4.50;;
16416;SDS011;8317;52.186;5.688;2022-11-25T03:03:11;16.73;;;4.88;;
16416;SDS011;8317;52.186;5.688;2022-11-25T03:05:38;14.20;;;3.97;;
16416;SDS011;8317;52.186;5.688;2022-11-25T03:08:06;20.13;;;4.28;;
16416;SDS011;8317;52.186;5.688;2022-11-25T03:10:33;24.40;;;4.38;;
16416;SDS011;8317;52.186;5.688;2022-11-25T03:13:00;20.45;;;4.95;;
16416;SDS011;8317;52.186;5.688;2022-11-25T03:15:27;19.55;;;5.35;;
16416;SDS011;8317;52.186;5.688;2022-11-25T03:17:56;23.63;;;4.85;;
16416;SDS011;8317;52.186;5.688;2022-11-25T03:20:22;18.10;;;5.15;;
16416;SDS011;8317;52.186;5.688;2022-11-25T03:22:49;18.83;;;4.88;;
16416;SDS011;8317;52.186;5.688;2022-11-25T03:25:16;15.45;;;4.72;;
16416;SDS011;8317;52.186;5.688;2022-11-25T03:27:44;26.35;;;4.75;;
16416;SDS011;8317;52.186;5.688;2022-11-25T03:30:12;22.83;;;5.32;;
16416;SDS011;8317;52.186;5.688;2022-11-25T03:32:40;13.48;;;4.63;;
16416;SDS011;8317;52.186;5.688;2022-11-25T03:35:09;29.45;;;6.00;;
16416;SDS011;8317;52.186;5.688;2022-11-25T03:37:37;15.73;;;4.93;;
16416;SDS011;8317;52.186;5.688;2022-11-25T03:40:04;20.65;;;4.85;;
16416;SDS011;8317;52.186;5.688;2022-11-25T03:42:32;17.52;;;5.82;;
16416;SDS011;8317;52.186;5.688;2022-11-25T03:44:59;22.23;;;5.43;;
16416;SDS011;8317;52.186;5.688;2022-11-25T03:47:26;23.30;;;5.57;;
16416;SDS011;8317;52.186;5.688;2022-11-25T03:49:53;19.77;;;5.53;;
16416;SDS011;8317;52.186;5.688;2022-11-25T03:52:22;12.57;;;4.55;;
16416;SDS011;8317;52.186;5.688;2022-11-25T03:54:49;18.23;;;5.07;;
16416;SDS011;8317;52.186;5.688;2022-11-25T03:57:16;19.73;;;5.00;;
16416;SDS011;8317;52.186;5.688;2022-11-25T03:59:43;21.10;;;5.10;;
16416;SDS011;8317;52.186;5.688;2022-11-25T04:02:10;19.08;;;5.20;;
16416;SDS011;8317;52.186;5.688;2022-11-25T04:04:38;19.92;;;5.53;;
16416;SDS011;8317;52.186;5.688;2022-11-25T04:07:05;16.85;;;5.15;;
16416;SDS011;8317;52.186;5.688;2022-11-25T04:09:33;18.25;;;5.18;;
16416;SDS011;8317;52.186;5.688;2022-11-25T04:12:00;23.35;;;6.25;;
16416;SDS011;8317;52.186;5.688;2022-11-25T04:14:45;20.63;;;5.22;;
16416;SDS011;8317;52.186;5.688;2022-11-25T04:17:11;18.15;;;4.90;;
16416;SDS011;8317;52.186;5.688;2022-11-25T04:19:38;19.55;;;5.55;;
16416;SDS011;8317;52.186;5.688;2022-11-25T04:22:05;17.70;;;4.38;;
16416;SDS011;8317;52.186;5.688;2022-11-25T04:24:34;14.77;;;5.38;;
16416;SDS011;8317;52.186;5.688;2022-11-25T04:27:00;19.25;;;4.47;;
16416;SDS011;8317;52.186;5.688;2022-11-25T04:29:27;15.10;;;4.72;;
16416;SDS011;8317;52.186;5.688;2022-11-25T04:31:54;18.15;;;5.15;;
16416;SDS011;8317;52.186;5.688;2022-11-25T04:34:21;16.40;;;4.93;;
16416;SDS011;8317;52.186;5.688;2022-11-25T04:36:48;14.07;;;4.47;;
16416;SDS011;8317;52.186;5.688;2022-11-25T04:39:15;16.42;;;4.60;;
16416;SDS011;8317;52.186;5.688;2022-11-25T04:41:43;22.73;;;4.45;;
16416;SDS011;8317;52.186;5.688;2022-11-25T04:44:10;14.88;;;4.82;;
16416;SDS011;8317;52.186;5.688;2022-11-25T04:46:37;12.82;;;3.97;;
16416;SDS011;8317;52.186;5.688;2022-11-25T04:49:06;13.75;;;3.60;;
16416;SDS011;8317;52.186;5.688;2022-11-25T04:51:34;13.27;;;3.97;;
16416;SDS011;8317;52.186;5.688;2022-11-25T04:54:01;16.05;;;4.47;;
16416;SDS011;8317;52.186;5.688;2022-11-25T04:56:28;12.52;;;3.70;;
16416;SDS011;8317;52.186;5.688;2022-11-25T04:58:56;10.73;;;3.78;;
16416;SDS011;8317;52.186;5.688;2022-11-25T05:01:40;16.65;;;4.10;;
16416;SDS011;8317;52.186;5.688;2022-11-25T05:04:07;10.10;;;3.30;;
16416;SDS011;8317;52.186;5.688;2022-11-25T05:06:34;13.00;;;3.42;;
16416;SDS011;8317;52.186;5.688;2022-11-25T05:09:01;7.60;;;3.15;;
16416;SDS011;8317;52.186;5.688;2022-11-25T05:11:28;9.30;;;2.88;;
16416;SDS011;8317;52.186;5.688;2022-11-25T05:13:56;8.38;;;2.88;;
16416;SDS011;8317;52.186;5.688;2022-11-25T05:16:23;5.80;;;2.65;;
16416;SDS011;8317;52.186;5.688;2022-11-25T05:18:50;6.03;;;2.00;;
16416;SDS011;8317;52.186;5.688;2022-11-25T05:21:17;8.05;;;2.53;;
16416;SDS011;8317;52.186;5.688;2022-11-25T05:23:44;11.20;;;2.40;;
16416;SDS011;8317;52.186;5.688;2022-11-25T05:26:11;7.07;;;2.30;;
16416;SDS011;8317;52.186;5.688;2022-11-25T05:28:38;11.10;;;2.20;;
16416;SDS011;8317;52.186;5.688;2022-11-25T05:31:06;6.35;;;1.98;;
16416;SDS011;8317;52.186;5.688;2022-11-25T05:33:33;8.77;;;1.90;;
16416;SDS011;8317;52.186;5.688;2022-11-25T05:36:00;3.63;;;2.00;;
16416;SDS011;8317;52.186;5.688;2022-11-25T05:38:28;8.30;;;2.22;;
16416;SDS011;8317;52.186;5.688;2022-11-25T05:40:59;7.28;;;2.30;;
16416;SDS011;8317;52.186;5.688;2022-11-25T05:43:27;7.13;;;2.40;;
16416;SDS011;8317;52.186;5.688;2022-11-25T05:45:54;8.60;;;2.38;;
16416;SDS011;8317;52.186;5.688;2022-11-25T05:48:22;7.63;;;2.38;;
16416;SDS011;8317;52.186;5.688;2022-11-25T05:50:49;6.68;;;2.38;;
16416;SDS011;8317;52.186;5.688;2022-11-25T05:53:16;5.93;;;2.17;;
16416;SDS011;8317;52.186;5.688;2022-11-25T05:55:43;4.50;;;2.50;;
16416;SDS011;8317;52.186;5.688;2022-11-25T05:58:09;8.50;;;2.72;;
16416;SDS011;8317;52.186;5.688;2022-11-25T06:00:36;6.97;;;2.72;;
16416;SDS011;8317;52.186;5.688;2022-11-25T06:03:04;7.18;;;2.58;;
16416;SDS011;8317;52.186;5.688;2022-11-25T06:05:34;8.30;;;2.50;;
16416;SDS011;8317;52.186;5.688;2022-11-25T06:08:01;8.25;;;2.70;;
16416;SDS011;8317;52.186;5.688;2022-11-25T06:10:28;9.63;;;3.22;;
16416;SDS011;8317;52.186;5.688;2022-11-25T06:12:55;5.57;;;2.83;;
16416;SDS011;8317;52.186;5.688;2022-11-25T06:15:21;7.93;;;3.22;;
16416;SDS011;8317;52.186;5.688;2022-11-25T06:17:48;8.98;;;3.58;;
16416;SDS011;8317;52.186;5.688;2022-11-25T06:20:15;4.93;;;2.90;;
16416;SDS011;8317;52.186;5.688;2022-11-25T06:22:43;9.73;;;3.00;;
16416;SDS011;8317;52.186;5.688;2022-11-25T06:25:10;6.88;;;3.58;;
16416;SDS011;8317;52.186;5.688;2022-11-25T06:27:37;8.98;;;3.55;;
16416;SDS011;8317;52.186;5.688;2022-11-25T06:30:05;6.72;;;3.08;;
16416;SDS011;8317;52.186;5.688;2022-11-25T06:32:33;12.23;;;3.38;;
16416;SDS011;8317;52.186;5.688;2022-11-25T06:35:00;9.82;;;3.40;;
16416;SDS011;8317;52.186;5.688;2022-11-25T06:37:27;8.63;;;4.05;;
16416;SDS011;8317;52.186;5.688;2022-11-25T06:39:55;7.90;;;3.30;;
16416;SDS011;8317;52.186;5.688;2022-11-25T06:42:22;9.68;;;3.42;;
16416;SDS011;8317;52.186;5.688;2022-11-25T06:44:49;6.15;;;3.30;;
16416;SDS011;8317;52.186;5.688;2022-11-25T06:47:15;7.15;;;3.42;;
16416;SDS011;8317;52.186;5.688;2022-11-25T06:49:42;5.60;;;3.30;;
16416;SDS011;8317;52.186;5.688;2022-11-25T06:52:09;13.15;;;3.88;;
16416;SDS011;8317;52.186;5.688;2022-11-25T06:54:36;6.68;;;3.63;;
16416;SDS011;8317;52.186;5.688;2022-11-25T06:57:06;5.93;;;3.25;;
16416;SDS011;8317;52.186;5.688;2022-11-25T06:59:33;7.43;;;3.58;;
16416;SDS011;8317;52.186;5.688;2022-11-25T07:02:01;8.88;;;3.60;;
16416;SDS011;8317;52.186;5.688;2022-11-25T07:04:28;9.95;;;3.70;;
16416;SDS011;8317;52.186;5.688;2022-11-25T07:06:55;6.13;;;3.38;;
16416;SDS011;8317;52.186;5.688;2022-11-25T07:09:22;6.85;;;3.17;;
16416;SDS011;8317;52.186;5.688;2022-11-25T07:11:49;6.32;;;2.80;;
16416;SDS011;8317;52.186;5.688;2022-11-25T07:14:17;8.13;;;3.20;;
16416;SDS011;8317;52.186;5.688;2022-11-25T07:16:44;10.63;;;3.83;;
16416;SDS011;8317;52.186;5.688;2022-11-25T07:19:12;9.60;;;3.42;;
16416;SDS011;8317;52.186;5.688;2022-11-25T07:21:40;8.43;;;3.97;;
16416;SDS011;8317;52.186;5.688;2022-11-25T07:24:10;10.27;;;4.10;;
16416;SDS011;8317;52.186;5.688;2022-11-25T07:26:38;12.20;;;3.80;;
16416;SDS011;8317;52.186;5.688;2022-11-25T07:29:07;9.73;;;3.92;;
16416;SDS011;8317;52.186;5.688;2022-11-25T07:31:38;10.43;;;4.25;;
16416;SDS011;8317;52.186;5.688;2022-11-25T07:34:07;6.63;;;3.40;;
16416;SDS011;8317;52.186;5.688;2022-11-25T07:36:37;10.32;;;4.05;;
16416;SDS011;8317;52.186;5.688;2022-11-25T07:39:07;11.05;;;4.30;;
16416;SDS011;8317;52.186;5.688;2022-11-25T07:41:37;9.60;;;4.32;;
16416;SDS011;8317;52.186;5.688;2022-11-25T07:44:05;7.03;;;3.88;;
16416;SDS011;8317;52.186;5.688;2022-11-25T07:46:33;9.43;;;4.22;;
16416;SDS011;8317;52.186;5.688;2022-11-25T07:49:03;9.25;;;4.50;;
16416;SDS011;8317;52.186;5.688;2022-11-25T07:51:33;8.85;;;4.38;;
16416;SDS011;8317;52.186;5.688;2022-11-25T07:54:04;11.48;;;4.88;;
16416;SDS011;8317;52.186;5.688;2022-11-25T07:56:32;8.52;;;4.13;;
16416;SDS011;8317;52.186;5.688;2022-11-25T07:59:00;8.70;;;4.80;;
16416;SDS011;8317;52.186;5.688;2022-11-25T08:01:28;9.07;;;4.53;;
16416;SDS011;8317;52.186;5.688;2022-11-25T08:03:55;8.20;;;5.13;;
16416;SDS011;8317;52.186;5.688;2022-11-25T08:06:24;15.30;;;5.70;;
16416;SDS011;8317;52.186;5.688;2022-11-25T08:08:52;13.73;;;5.53;;
16416;SDS011;8317;52.186;5.688;2022-11-25T08:11:21;11.70;;;4.60;;
16416;SDS011;8317;52.186;5.688;2022-11-25T08:13:49;7.13;;;5.25;;
16416;SDS011;8317;52.186;5.688;2022-11-25T08:16:17;16.45;;;4.68;;
16416;SDS011;8317;52.186;5.688;2022-11-25T08:18:45;10.43;;;4.53;;
16416;SDS011;8317;52.186;5.688;2022-11-25T08:21:13;13.27;;;5.18;;
16416;SDS011;8317;52.186;5.688;2022-11-25T08:23:43;11.35;;;5.07;;
16416;SDS011;8317;52.186;5.688;2022-11-25T08:26:13;8.20;;;4.90;;
16416;SDS011;8317;52.186;5.688;2022-11-25T08:28:42;7.18;;;4.88;;
16416;SDS011;8317;52.186;5.688;2022-11-25T08:31:10;11.77;;;5.07;;
16416;SDS011;8317;52.186;5.688;2022-11-25T08:33:38;16.05;;;6.22;;
16416;SDS011;8317;52.186;5.688;2022-11-25T08:36:05;8.95;;;4.40;;
16416;SDS011;8317;52.186;5.688;2022-11-25T08:38:33;10.77;;;3.90;;
16416;SDS011;8317;52.186;5.688;2022-11-25T08:41:07;7.07;;;3.75;;
16416;SDS011;8317;52.186;5.688;2022-11-25T08:43:35;7.75;;;3.60;;
16416;SDS011;8317;52.186;5.688;2022-11-25T08:46:05;6.50;;;3.85;;
16416;SDS011;8317;52.186;5.688;2022-11-25T08:48:34;6.43;;;3.55;;
16416;SDS011;8317;52.186;5.688;2022-11-25T08:51:00;8.63;;;3.40;;
16416;SDS011;8317;52.186;5.688;2022-11-25T08:53:27;7.93;;;3.90;;
16416;SDS011;8317;52.186;5.688;2022-11-25T08:55:54;9.27;;;4.00;;
16416;SDS011;8317;52.186;5.688;2022-11-25T08:58:22;7.40;;;3.63;;
16416;SDS011;8317;52.186;5.688;2022-11-25T09:00:49;8.95;;;4.00;;
16416;SDS011;8317;52.186;5.688;2022-11-25T09:03:16;7.43;;;3.05;;
16416;SDS011;8317;52.186;5.688;2022-11-25T09:05:43;8.82;;;3.28;;
16416;SDS011;8317;52.186;5.688;2022-11-25T09:08:10;8.18;;;2.92;;
16416;SDS011;8317;52.186;5.688;2022-11-25T09:10:37;7.75;;;3.42;;
16416;SDS011;8317;52.186;5.688;2022-11-25T09:13:05;6.32;;;3.17;;
16416;SDS011;8317;52.186;5.688;2022-11-25T09:15:35;9.95;;;3.70;;
16416;SDS011;8317;52.186;5.688;2022-11-25T09:18:04;6.07;;;3.95;;
16416;SDS011;8317;52.186;5.688;2022-11-25T09:20:33;6.22;;;3.55;;
16416;SDS011;8317;52.186;5.688;2022-11-25T09:23:02;6.43;;;3.10;;
16416;SDS011;8317;52.186;5.688;2022-11-25T09:25:29;11.48;;;4.35;;
16416;SDS011;8317;52.186;5.688;2022-11-25T09:27:56;9.57;;;3.30;;
16416;SDS011;8317;52.186;5.688;2022-11-25T09:30:23;15.93;;;3.45;;
16416;SDS011;8317;52.186;5.688;2022-11-25T09:32:53;11.10;;;3.53;;
16416;SDS011;8317;52.186;5.688;2022-11-25T09:35:21;8.93;;;3.50;;
16416;SDS011;8317;52.186;5.688;2022-11-25T09:37:48;6.05;;;2.70;;
16416;SDS011;8317;52.186;5.688;2022-11-25T09:40:17;6.90;;;3.30;;
16416;SDS011;8317;52.186;5.688;2022-11-25T09:42:47;8.15;;;2.92;;
16416;SDS011;8317;52.186;5.688;2022-11-25T09:45:41;11.77;;;2.95;;
16416;SDS011;8317;52.186;5.688;2022-11-25T09:48:42;9.75;;;2.75;;
16416;SDS011;8317;52.186;5.688;2022-11-25T09:51:19;4.65;;;2.67;;
16416;SDS011;8317;52.186;5.688;2022-11-25T09:53:49;7.35;;;3.25;;
16416;SDS011;8317;52.186;5.688;2022-11-25T09:56:22;6.90;;;3.13;;
16416;SDS011;8317;52.186;5.688;2022-11-25T09:58:55;9.55;;;3.67;;
16416;SDS011;8317;52.186;5.688;2022-11-25T10:01:28;7.05;;;2.83;;
16416;SDS011;8317;52.186;5.688;2022-11-25T10:03:59;12.43;;;3.53;;
16416;SDS011;8317;52.186;5.688;2022-11-25T10:06:28;14.45;;;3.58;;
16416;SDS011;8317;52.186;5.688;2022-11-25T10:08:59;12.57;;;3.15;;
16416;SDS011;8317;52.186;5.688;2022-11-25T10:11:34;11.25;;;3.05;;
16416;SDS011;8317;52.186;5.688;2022-11-25T10:14:11;7.25;;;2.85;;
16416;SDS011;8317;52.186;5.688;2022-11-25T10:16:46;8.63;;;2.70;;
16416;SDS011;8317;52.186;5.688;2022-11-25T10:19:22;8.23;;;3.17;;
16416;SDS011;8317;52.186;5.688;2022-11-25T10:21:57;8.77;;;2.95;;
16416;SDS011;8317;52.186;5.688;2022-11-25T10:24:23;6.78;;;3.33;;
16416;SDS011;8317;52.186;5.688;2022-11-25T10:26:52;7.38;;;3.15;;
16416;SDS011;8317;52.186;5.688;2022-11-25T10:29:26;10.80;;;2.92;;
16416;SDS011;8317;52.186;5.688;2022-11-25T10:31:57;7.13;;;2.80;;
16416;SDS011;8317;52.186;5.688;2022-11-25T10:34:33;18.05;;;3.25;;
16416;SDS011;8317;52.186;5.688;2022-11-25T10:37:05;7.32;;;3.30;;
16416;SDS011;8317;52.186;5.688;2022-11-25T10:39:38;7.07;;;2.58;;
16416;SDS011;8317;52.186;5.688;2022-11-25T10:42:06;7.50;;;2.97;;
16416;SDS011;8317;52.186;5.688;2022-11-25T10:44:41;7.72;;;2.92;;
16416;SDS011;8317;52.186;5.688;2022-11-25T10:47:13;8.88;;;3.45;;
16416;SDS011;8317;52.186;5.688;2022-11-25T10:49:54;5.15;;;2.72;;
16416;SDS011;8317;52.186;5.688;2022-11-25T10:52:34;7.10;;;3.65;;
16416;SDS011;8317;52.186;5.688;2022-11-25T10:55:08;7.25;;;3.30;;
16416;SDS011;8317;52.186;5.688;2022-11-25T10:57:37;8.52;;;3.50;;
16416;SDS011;8317;52.186;5.688;2022-11-25T11:00:05;10.57;;;3.75;;
16416;SDS011;8317;52.186;5.688;2022-11-25T11:02:46;10.63;;;3.50;;
16416;SDS011;8317;52.186;5.688;2022-11-25T11:05:17;11.30;;;3.40;;
16416;SDS011;8317;52.186;5.688;2022-11-25T11:07:47;9.73;;;3.25;;
16416;SDS011;8317;52.186;5.688;2022-11-25T11:10:33;11.13;;;3.80;;
16416;SDS011;8317;52.186;5.688;2022-11-25T11:13:01;10.98;;;3.47;;
16416;SDS011;8317;52.186;5.688;2022-11-25T11:15:30;7.47;;;3.58;;
16416;SDS011;8317;52.186;5.688;2022-11-25T11:17:59;7.78;;;3.70;;
16416;SDS011;8317;52.186;5.688;2022-11-25T11:20:45;9.48;;;3.35;;
16416;SDS011;8317;52.186;5.688;2022-11-25T11:23:13;12.82;;;4.20;;
16416;SDS011;8317;52.186;5.688;2022-11-25T11:25:41;8.25;;;3.78;;
16416;SDS011;8317;52.186;5.688;2022-11-25T11:28:23;10.23;;;3.70;;
16416;SDS011;8317;52.186;5.688;2022-11-25T11:30:54;10.18;;;3.80;;
16416;SDS011;8317;52.186;5.688;2022-11-25T11:33:33;12.90;;;4.45;;
16416;SDS011;8317;52.186;5.688;2022-11-25T11:36:11;10.18;;;4.07;;
16416;SDS011;8317;52.186;5.688;2022-11-25T11:38:52;11.43;;;4.30;;
16416;SDS011;8317;52.186;5.688;2022-11-25T11:41:26;10.43;;;4.20;;
16416;SDS011;8317;52.186;5.688;2022-11-25T11:44:06;13.48;;;4.25;;
16416;SDS011;8317;52.186;5.688;2022-11-25T11:46:44;14.63;;;4.32;;
16416;SDS011;8317;52.186;5.688;2022-11-25T11:49:27;11.75;;;4.35;;
16416;SDS011;8317;52.186;5.688;2022-11-25T11:52:13;16.75;;;4.63;;
16416;SDS011;8317;52.186;5.688;2022-11-25T11:54:49;10.43;;;4.07;;
16416;SDS011;8317;52.186;5.688;2022-11-25T11:57:20;13.00;;;4.22;;
16416;SDS011;8317;52.186;5.688;2022-11-25T11:59:57;11.93;;;3.83;;
16416;SDS011;8317;52.186;5.688;2022-11-25T12:02:30;13.43;;;3.90;;
16416;SDS011;8317;52.186;5.688;2022-11-25T12:05:11;14.85;;;4.18;;
16416;SDS011;8317;52.186;5.688;2022-11-25T12:07:43;17.20;;;4.47;;
16416;SDS011;8317;52.186;5.688;2022-11-25T12:10:21;18.25;;;4.57;;
16416;SDS011;8317;52.186;5.688;2022-11-25T12:12:51;11.55;;;3.92;;
16416;SDS011;8317;52.186;5.688;2022-11-25T12:15:23;12.88;;;3.65;;
16416;SDS011;8317;52.186;5.688;2022-11-25T12:17:59;13.75;;;3.88;;
16416;SDS011;8317;52.186;5.688;2022-11-25T12:20:32;9.70;;;3.35;;
16416;SDS011;8317;52.186;5.688;2022-11-25T12:23:07;18.10;;;4.55;;
16416;SDS011;8317;52.186;5.688;2022-11-25T12:25:39;18.95;;;4.45;;
16416;SDS011;8317;52.186;5.688;2022-11-25T12:28:08;11.05;;;3.80;;
16416;SDS011;8317;52.186;5.688;2022-11-25T12:30:39;12.00;;;3.47;;
16416;SDS011;8317;52.186;5.688;2022-11-25T12:33:17;10.95;;;3.67;;
16416;SDS011;8317;52.186;5.688;2022-11-25T12:35:49;14.18;;;4.00;;
16416;SDS011;8317;52.186;5.688;2022-11-25T12:38:24;11.60;;;4.20;;
16416;SDS011;8317;52.186;5.688;2022-11-25T12:40:59;12.68;;;4.20;;
16416;SDS011;8317;52.186;5.688;2022-11-25T12:43:37;10.90;;;3.85;;
16416;SDS011;8317;52.186;5.688;2022-11-25T12:46:13;12.25;;;3.88;;
16416;SDS011;8317;52.186;5.688;2022-11-25T12:48:47;11.85;;;3.72;;
16416;SDS011;8317;52.186;5.688;2022-11-25T12:51:19;13.57;;;3.88;;
16416;SDS011;8317;52.186;5.688;2022-11-25T12:53:58;12.60;;;3.97;;
16416;SDS011;8317;52.186;5.688;2022-11-25T12:56:38;11.52;;;3.65;;
16416;SDS011;8317;52.186;5.688;2022-11-25T13:05:08;12.15;;;3.60;;
16416;SDS011;8317;52.186;5.688;2022-11-25T13:07:47;11.68;;;3.28;;
16416;SDS011;8317;52.186;5.688;2022-11-25T13:10:43;10.73;;;3.22;;
16416;SDS011;8317;52.186;5.688;2022-11-25T13:13:26;14.25;;;3.40;;
16416;SDS011;8317;52.186;5.688;2022-11-25T13:16:02;11.75;;;3.20;;
16416;SDS011;8317;52.186;5.688;2022-11-25T13:18:32;18.90;;;3.83;;
16416;SDS011;8317;52.186;5.688;2022-11-25T13:21:05;13.90;;;3.75;;
16416;SDS011;8317;52.186;5.688;2022-11-25T13:23:44;12.73;;;3.30;;
16416;SDS011;8317;52.186;5.688;2022-11-25T13:32:28;15.75;;;3.40;;
16416;SDS011;8317;52.186;5.688;2022-11-25T13:38:05;11.93;;;2.80;;
16416;SDS011;8317;52.186;5.688;2022-11-25T13:40:51;11.73;;;3.00;;
16416;SDS011;8317;52.186;5.688;2022-11-25T13:43:22;16.20;;;3.13;;
16416;SDS011;8317;52.186;5.688;2022-11-25T13:45:49;9.00;;;3.10;;
16416;SDS011;8317;52.186;5.688;2022-11-25T13:48:18;11.30;;;3.03;;
16416;SDS011;8317;52.186;5.688;2022-11-25T13:50:48;9.88;;;2.75;;
16416;SDS011;8317;52.186;5.688;2022-11-25T13:53:20;14.40;;;3.05;;
16416;SDS011;8317;52.186;5.688;2022-11-25T13:55:49;10.23;;;2.65;;
16416;SDS011;8317;52.186;5.688;2022-11-25T13:58:20;11.75;;;3.17;;
16416;SDS011;8317;52.186;5.688;2022-11-25T14:00:59;13.48;;;3.05;;
16416;SDS011;8317;52.186;5.688;2022-11-25T14:03:47;8.32;;;3.00;;
16416;SDS011;8317;52.186;5.688;2022-11-25T14:06:25;13.77;;;3.45;;
16416;SDS011;8317;52.186;5.688;2022-11-25T14:09:11;21.92;;;4.25;;
16416;SDS011;8317;52.186;5.688;2022-11-25T14:11:52;10.32;;;3.10;;
16416;SDS011;8317;52.186;5.688;2022-11-25T14:14:43;13.07;;;2.90;;
16416;SDS011;8317;52.186;5.688;2022-11-25T14:17:25;14.55;;;3.28;;
16416;SDS011;8317;52.186;5.688;2022-11-25T14:20:15;10.35;;;2.90;;
16416;SDS011;8317;52.186;5.688;2022-11-25T14:22:59;13.68;;;2.92;;
16416;SDS011;8317;52.186;5.688;2022-11-25T14:25:42;10.02;;;3.05;;
16416;SDS011;8317;52.186;5.688;2022-11-25T14:28:14;14.38;;;2.95;;
16416;SDS011;8317;52.186;5.688;2022-11-25T14:30:50;15.27;;;3.42;;
16416;SDS011;8317;52.186;5.688;2022-11-25T14:33:21;15.77;;;2.90;;
16416;SDS011;8317;52.186;5.688;2022-11-25T14:35:52;10.20;;;2.63;;
16416;SDS011;8317;52.186;5.688;2022-11-25T14:38:26;13.63;;;2.95;;
16416;SDS011;8317;52.186;5.688;2022-11-25T14:40:59;11.00;;;3.25;;
16416;SDS011;8317;52.186;5.688;2022-11-25T14:43:34;13.52;;;2.83;;
16416;SDS011;8317;52.186;5.688;2022-11-25T14:46:09;12.18;;;2.95;;
16416;SDS011;8317;52.186;5.688;2022-11-25T14:48:39;13.13;;;2.67;;
16416;SDS011;8317;52.186;5.688;2022-11-25T14:51:08;11.68;;;3.17;;
16416;SDS011;8317;52.186;5.688;2022-11-25T14:53:38;8.25;;;3.08;;
16416;SDS011;8317;52.186;5.688;2022-11-25T14:56:07;10.13;;;3.00;;
16416;SDS011;8317;52.186;5.688;2022-11-25T14:58:38;14.25;;;3.85;;
16416;SDS011;8317;52.186;5.688;2022-11-25T15:01:07;13.98;;;3.17;;
16416;SDS011;8317;52.186;5.688;2022-11-25T15:03:44;16.95;;;3.33;;
16416;SDS011;8317;52.186;5.688;2022-11-25T15:06:14;20.15;;;2.75;;
16416;SDS011;8317;52.186;5.688;2022-11-25T15:08:44;14.55;;;3.30;;
16416;SDS011;8317;52.186;5.688;2022-11-25T15:11:20;17.85;;;3.65;;
16416;SDS011;8317;52.186;5.688;2022-11-25T15:13:50;16.92;;;3.92;;
16416;SDS011;8317;52.186;5.688;2022-11-25T15:16:20;13.88;;;3.15;;
16416;SDS011;8317;52.186;5.688;2022-11-25T15:18:50;10.52;;;2.97;;
16416;SDS011;8317;52.186;5.688;2022-11-25T15:21:22;15.82;;;3.63;;
16416;SDS011;8317;52.186;5.688;2022-11-25T15:23:53;14.43;;;4.30;;
16416;SDS011;8317;52.186;5.688;2022-11-25T15:26:20;13.77;;;3.17;;
16416;SDS011;8317;52.186;5.688;2022-11-25T15:28:52;15.90;;;3.33;;